sensor_id;sensor_type;location;lat;lon;timestamp;P1;durP1;ratioP1;P2;durP2;ratioP2
5456;SDS011;2751;49.802;9.944;2023-03-12T00:01:08;10.10;;;7.13;;
5456;SDS011;2751;49.802;9.944;2023-03-12T00:03:36;12.07;;;6.90;;
5456;SDS011;2751;49.802;9.944;2023-03-12T00:06:04;14.50;;;6.80;;
5456;SDS011;2751;49.802;9.944;2023-03-12T00:08:32;10.10;;;7.17;;
5456;SDS011;2751;49.802;9.944;2023-03-12T00:11:03;11.40;;;7.77;;
5456;SDS011;2751;49.802;9.944;2023-03-12T00:13:31;10.50;;;7.40;;
5456;SDS011;2751;49.802;9.944;2023-03-12T00:16:01;12.10;;;7.50;;
5456;SDS011;2751;49.802;9.944;2023-03-12T00:18:30;11.83;;;7.50;;
5456;SDS011;2751;49.802;9.944;2023-03-12T00:20:57;10.67;;;7.90;;
5456;SDS011;2751;49.802;9.944;2023-03-12T00:23:23;14.10;;;7.90;;
5456;SDS011;2751;49.802;9.944;2023-03-12T00:25:50;10.20;;;7.00;;
5456;SDS011;2751;49.802;9.944;2023-03-12T00:28:19;10.90;;;7.97;;
5456;SDS011;2751;49.802;9.944;2023-03-12T00:30:46;12.50;;;7.57;;
5456;SDS011;2751;49.802;9.944;2023-03-12T00:33:13;11.40;;;7.60;;
5456;SDS011;2751;49.802;9.944;2023-03-12T00:35:39;13.20;;;7.43;;
5456;SDS011;2751;49.802;9.944;2023-03-12T00:38:06;8.87;;;7.10;;
5456;SDS011;2751;49.802;9.944;2023-03-12T00:40:33;11.90;;;7.70;;
5456;SDS011;2751;49.802;9.944;2023-03-12T00:43:00;12.73;;;8.07;;
5456;SDS011;2751;49.802;9.944;2023-03-12T00:45:28;10.93;;;8.10;;
5456;SDS011;2751;49.802;9.944;2023-03-12T00:47:58;11.13;;;7.00;;
5456;SDS011;2751;49.802;9.944;2023-03-12T00:50:25;11.47;;;7.80;;
5456;SDS011;2751;49.802;9.944;2023-03-12T00:52:52;11.10;;;7.33;;
5456;SDS011;2751;49.802;9.944;2023-03-12T00:55:18;10.60;;;7.40;;
5456;SDS011;2751;49.802;9.944;2023-03-12T00:57:45;13.97;;;8.10;;
5456;SDS011;2751;49.802;9.944;2023-03-12T01:00:12;10.50;;;7.67;;
5456;SDS011;2751;49.802;9.944;2023-03-12T01:02:41;10.57;;;7.40;;
5456;SDS011;2751;49.802;9.944;2023-03-12T01:05:10;11.13;;;6.90;;
5456;SDS011;2751;49.802;9.944;2023-03-12T01:07:37;12.03;;;7.37;;
5456;SDS011;2751;49.802;9.944;2023-03-12T01:10:05;12.37;;;7.50;;
5456;SDS011;2751;49.802;9.944;2023-03-12T01:12:33;14.30;;;7.83;;
5456;SDS011;2751;49.802;9.944;2023-03-12T01:15:00;12.53;;;8.00;;
5456;SDS011;2751;49.802;9.944;2023-03-12T01:17:27;9.77;;;7.07;;
5456;SDS011;2751;49.802;9.944;2023-03-12T01:19:55;11.27;;;8.17;;
5456;SDS011;2751;49.802;9.944;2023-03-12T01:22:22;12.33;;;7.40;;
5456;SDS011;2751;49.802;9.944;2023-03-12T01:24:49;10.50;;;7.90;;
5456;SDS011;2751;49.802;9.944;2023-03-12T01:27:17;12.07;;;7.90;;
5456;SDS011;2751;49.802;9.944;2023-03-12T01:29:44;10.50;;;7.83;;
5456;SDS011;2751;49.802;9.944;2023-03-12T01:32:11;8.77;;;6.97;;
5456;SDS011;2751;49.802;9.944;2023-03-12T01:34:38;10.80;;;7.40;;
5456;SDS011;2751;49.802;9.944;2023-03-12T01:37:06;9.20;;;6.30;;
5456;SDS011;2751;49.802;9.944;2023-03-12T01:39:33;11.07;;;7.00;;
5456;SDS011;2751;49.802;9.944;2023-03-12T01:42:00;11.73;;;8.17;;
5456;SDS011;2751;49.802;9.944;2023-03-12T01:44:27;8.90;;;7.00;;
5456;SDS011;2751;49.802;9.944;2023-03-12T01:46:54;10.20;;;7.00;;
5456;SDS011;2751;49.802;9.944;2023-03-12T01:49:22;10.10;;;6.90;;
5456;SDS011;2751;49.802;9.944;2023-03-12T01:51:51;10.40;;;7.50;;
5456;SDS011;2751;49.802;9.944;2023-03-12T01:54:24;13.13;;;7.57;;
5456;SDS011;2751;49.802;9.944;2023-03-12T01:56:55;10.47;;;7.37;;
5456;SDS011;2751;49.802;9.944;2023-03-12T01:59:26;10.10;;;7.20;;
5456;SDS011;2751;49.802;9.944;2023-03-12T02:01:55;12.83;;;7.50;;
5456;SDS011;2751;49.802;9.944;2023-03-12T02:04:23;9.33;;;7.20;;
5456;SDS011;2751;49.802;9.944;2023-03-12T02:06:52;10.23;;;7.40;;
5456;SDS011;2751;49.802;9.944;2023-03-12T02:09:24;9.83;;;6.93;;
5456;SDS011;2751;49.802;9.944;2023-03-12T02:11:51;12.33;;;7.67;;
5456;SDS011;2751;49.802;9.944;2023-03-12T02:14:18;14.57;;;7.10;;
5456;SDS011;2751;49.802;9.944;2023-03-12T02:16:45;10.50;;;7.10;;
5456;SDS011;2751;49.802;9.944;2023-03-12T02:19:15;10.20;;;6.97;;
5456;SDS011;2751;49.802;9.944;2023-03-12T02:21:47;10.40;;;7.70;;
5456;SDS011;2751;49.802;9.944;2023-03-12T02:24:15;10.43;;;7.10;;
5456;SDS011;2751;49.802;9.944;2023-03-12T02:26:49;9.00;;;6.73;;
5456;SDS011;2751;49.802;9.944;2023-03-12T02:29:16;9.73;;;6.93;;
5456;SDS011;2751;49.802;9.944;2023-03-12T02:31:44;10.93;;;7.40;;
5456;SDS011;2751;49.802;9.944;2023-03-12T02:34:16;12.57;;;7.50;;
5456;SDS011;2751;49.802;9.944;2023-03-12T02:36:43;9.77;;;6.40;;
5456;SDS011;2751;49.802;9.944;2023-03-12T02:39:10;9.30;;;6.67;;
5456;SDS011;2751;49.802;9.944;2023-03-12T02:41:38;11.47;;;7.17;;
5456;SDS011;2751;49.802;9.944;2023-03-12T02:44:10;9.67;;;7.40;;
5456;SDS011;2751;49.802;9.944;2023-03-12T02:46:40;9.90;;;6.30;;
5456;SDS011;2751;49.802;9.944;2023-03-12T02:49:09;10.43;;;5.80;;
5456;SDS011;2751;49.802;9.944;2023-03-12T02:51:37;8.43;;;5.90;;
5456;SDS011;2751;49.802;9.944;2023-03-12T02:54:04;10.80;;;5.77;;
5456;SDS011;2751;49.802;9.944;2023-03-12T02:56:32;5.77;;;5.10;;
5456;SDS011;2751;49.802;9.944;2023-03-12T02:58:59;6.33;;;5.07;;
5456;SDS011;2751;49.802;9.944;2023-03-12T03:01:27;7.23;;;5.23;;
5456;SDS011;2751;49.802;9.944;2023-03-12T03:03:57;10.00;;;5.93;;
5456;SDS011;2751;49.802;9.944;2023-03-12T03:06:24;6.90;;;5.67;;
5456;SDS011;2751;49.802;9.944;2023-03-12T03:08:51;8.17;;;6.40;;
5456;SDS011;2751;49.802;9.944;2023-03-12T03:11:19;11.30;;;6.33;;
5456;SDS011;2751;49.802;9.944;2023-03-12T03:13:48;7.70;;;5.40;;
5456;SDS011;2751;49.802;9.944;2023-03-12T03:16:15;9.00;;;6.17;;
5456;SDS011;2751;49.802;9.944;2023-03-12T03:18:43;6.63;;;5.87;;
5456;SDS011;2751;49.802;9.944;2023-03-12T03:21:10;9.53;;;5.30;;
5456;SDS011;2751;49.802;9.944;2023-03-12T03:23:40;8.83;;;5.13;;
5456;SDS011;2751;49.802;9.944;2023-03-12T03:26:07;6.40;;;5.40;;
5456;SDS011;2751;49.802;9.944;2023-03-12T03:28:34;6.23;;;5.53;;
5456;SDS011;2751;49.802;9.944;2023-03-12T03:31:01;9.83;;;5.13;;
5456;SDS011;2751;49.802;9.944;2023-03-12T03:33:30;7.80;;;5.73;;
5456;SDS011;2751;49.802;9.944;2023-03-12T03:36:00;7.40;;;5.43;;
5456;SDS011;2751;49.802;9.944;2023-03-12T03:38:28;6.87;;;5.10;;
5456;SDS011;2751;49.802;9.944;2023-03-12T03:40:55;6.97;;;5.23;;
5456;SDS011;2751;49.802;9.944;2023-03-12T03:43:22;10.77;;;5.00;;
5456;SDS011;2751;49.802;9.944;2023-03-12T03:45:55;6.00;;;4.80;;
5456;SDS011;2751;49.802;9.944;2023-03-12T03:48:22;7.10;;;5.87;;
5456;SDS011;2751;49.802;9.944;2023-03-12T03:50:49;7.00;;;5.10;;
5456;SDS011;2751;49.802;9.944;2023-03-12T03:53:18;8.20;;;5.30;;
5456;SDS011;2751;49.802;9.944;2023-03-12T03:55:45;6.67;;;5.97;;
5456;SDS011;2751;49.802;9.944;2023-03-12T03:58:12;6.47;;;5.67;;
5456;SDS011;2751;49.802;9.944;2023-03-12T04:00:39;8.80;;;5.93;;
5456;SDS011;2751;49.802;9.944;2023-03-12T04:03:09;7.60;;;5.83;;
5456;SDS011;2751;49.802;9.944;2023-03-12T04:05:35;7.87;;;5.70;;
5456;SDS011;2751;49.802;9.944;2023-03-12T04:08:03;6.83;;;5.83;;
5456;SDS011;2751;49.802;9.944;2023-03-12T04:10:32;7.77;;;5.10;;
5456;SDS011;2751;49.802;9.944;2023-03-12T04:12:59;9.03;;;5.73;;
5456;SDS011;2751;49.802;9.944;2023-03-12T04:15:26;8.00;;;6.00;;
5456;SDS011;2751;49.802;9.944;2023-03-12T04:17:52;7.53;;;5.50;;
5456;SDS011;2751;49.802;9.944;2023-03-12T04:20:19;8.37;;;6.40;;
5456;SDS011;2751;49.802;9.944;2023-03-12T04:22:46;7.70;;;6.13;;
5456;SDS011;2751;49.802;9.944;2023-03-12T04:25:13;9.13;;;6.70;;
5456;SDS011;2751;49.802;9.944;2023-03-12T04:27:41;11.23;;;6.33;;
5456;SDS011;2751;49.802;9.944;2023-03-12T04:30:09;8.03;;;5.93;;
5456;SDS011;2751;49.802;9.944;2023-03-12T04:32:36;8.17;;;5.70;;
5456;SDS011;2751;49.802;9.944;2023-03-12T04:35:03;8.37;;;5.70;;
5456;SDS011;2751;49.802;9.944;2023-03-12T04:37:31;6.60;;;5.60;;
5456;SDS011;2751;49.802;9.944;2023-03-12T04:39:59;7.90;;;5.67;;
5456;SDS011;2751;49.802;9.944;2023-03-12T04:42:27;6.20;;;5.60;;
5456;SDS011;2751;49.802;9.944;2023-03-12T04:44:56;10.30;;;5.90;;
5456;SDS011;2751;49.802;9.944;2023-03-12T04:47:22;8.77;;;5.70;;
5456;SDS011;2751;49.802;9.944;2023-03-12T04:49:49;6.20;;;5.30;;
5456;SDS011;2751;49.802;9.944;2023-03-12T04:52:16;5.97;;;5.37;;
5456;SDS011;2751;49.802;9.944;2023-03-12T04:54:43;8.60;;;5.97;;
5456;SDS011;2751;49.802;9.944;2023-03-12T04:57:10;7.33;;;5.40;;
5456;SDS011;2751;49.802;9.944;2023-03-12T04:59:37;7.93;;;5.60;;
5456;SDS011;2751;49.802;9.944;2023-03-12T05:02:05;7.03;;;5.40;;
5456;SDS011;2751;49.802;9.944;2023-03-12T05:04:32;9.47;;;6.00;;
5456;SDS011;2751;49.802;9.944;2023-03-12T05:06:59;7.90;;;4.80;;
5456;SDS011;2751;49.802;9.944;2023-03-12T05:09:26;9.33;;;5.57;;
5456;SDS011;2751;49.802;9.944;2023-03-12T05:11:52;7.60;;;5.63;;
5456;SDS011;2751;49.802;9.944;2023-03-12T05:14:20;7.80;;;5.00;;
5456;SDS011;2751;49.802;9.944;2023-03-12T05:16:46;5.60;;;5.00;;
5456;SDS011;2751;49.802;9.944;2023-03-12T05:19:15;5.93;;;4.90;;
5456;SDS011;2751;49.802;9.944;2023-03-12T05:21:42;5.70;;;4.70;;
5456;SDS011;2751;49.802;9.944;2023-03-12T05:24:09;5.33;;;4.83;;
5456;SDS011;2751;49.802;9.944;2023-03-12T05:26:37;7.00;;;5.07;;
5456;SDS011;2751;49.802;9.944;2023-03-12T05:29:04;6.33;;;5.10;;
5456;SDS011;2751;49.802;9.944;2023-03-12T05:31:31;6.20;;;5.60;;
5456;SDS011;2751;49.802;9.944;2023-03-12T05:33:59;6.33;;;5.10;;
5456;SDS011;2751;49.802;9.944;2023-03-12T05:36:27;9.60;;;5.23;;
5456;SDS011;2751;49.802;9.944;2023-03-12T05:38:54;5.97;;;5.27;;
5456;SDS011;2751;49.802;9.944;2023-03-12T05:41:22;8.50;;;5.40;;
5456;SDS011;2751;49.802;9.944;2023-03-12T05:43:50;7.47;;;6.07;;
5456;SDS011;2751;49.802;9.944;2023-03-12T05:46:18;8.33;;;5.43;;
5456;SDS011;2751;49.802;9.944;2023-03-12T05:48:45;15.73;;;6.67;;
5456;SDS011;2751;49.802;9.944;2023-03-12T05:51:12;6.80;;;6.00;;
5456;SDS011;2751;49.802;9.944;2023-03-12T05:53:40;8.47;;;5.83;;
5456;SDS011;2751;49.802;9.944;2023-03-12T05:56:10;7.83;;;5.70;;
5456;SDS011;2751;49.802;9.944;2023-03-12T05:58:38;7.93;;;5.90;;
5456;SDS011;2751;49.802;9.944;2023-03-12T06:01:10;7.40;;;6.37;;
5456;SDS011;2751;49.802;9.944;2023-03-12T06:03:37;7.20;;;5.97;;
5456;SDS011;2751;49.802;9.944;2023-03-12T06:06:04;8.47;;;6.13;;
5456;SDS011;2751;49.802;9.944;2023-03-12T06:08:31;12.33;;;7.13;;
5456;SDS011;2751;49.802;9.944;2023-03-12T06:10:59;10.80;;;6.93;;
5456;SDS011;2751;49.802;9.944;2023-03-12T06:13:26;8.00;;;5.87;;
5456;SDS011;2751;49.802;9.944;2023-03-12T06:15:53;7.70;;;6.13;;
5456;SDS011;2751;49.802;9.944;2023-03-12T06:18:20;7.03;;;6.33;;
5456;SDS011;2751;49.802;9.944;2023-03-12T06:20:46;7.73;;;6.80;;
5456;SDS011;2751;49.802;9.944;2023-03-12T06:23:13;7.93;;;6.53;;
5456;SDS011;2751;49.802;9.944;2023-03-12T06:25:43;8.13;;;6.40;;
5456;SDS011;2751;49.802;9.944;2023-03-12T06:28:11;10.23;;;7.37;;
5456;SDS011;2751;49.802;9.944;2023-03-12T06:30:38;6.17;;;5.57;;
5456;SDS011;2751;49.802;9.944;2023-03-12T06:33:05;8.90;;;5.93;;
5456;SDS011;2751;49.802;9.944;2023-03-12T06:35:35;8.00;;;5.70;;
5456;SDS011;2751;49.802;9.944;2023-03-12T06:38:02;9.80;;;5.60;;
5456;SDS011;2751;49.802;9.944;2023-03-12T06:40:32;7.47;;;5.93;;
5456;SDS011;2751;49.802;9.944;2023-03-12T06:42:58;5.27;;;4.70;;
5456;SDS011;2751;49.802;9.944;2023-03-12T06:45:27;7.40;;;5.17;;
5456;SDS011;2751;49.802;9.944;2023-03-12T06:47:54;5.00;;;4.50;;
5456;SDS011;2751;49.802;9.944;2023-03-12T06:50:21;5.27;;;4.73;;
5456;SDS011;2751;49.802;9.944;2023-03-12T06:52:47;6.10;;;4.87;;
5456;SDS011;2751;49.802;9.944;2023-03-12T06:55:14;5.07;;;4.57;;
5456;SDS011;2751;49.802;9.944;2023-03-12T06:57:41;5.63;;;4.63;;
5456;SDS011;2751;49.802;9.944;2023-03-12T07:00:09;5.43;;;4.60;;
5456;SDS011;2751;49.802;9.944;2023-03-12T07:02:38;5.47;;;4.90;;
5456;SDS011;2751;49.802;9.944;2023-03-12T07:05:05;6.80;;;6.10;;
5456;SDS011;2751;49.802;9.944;2023-03-12T07:07:32;6.50;;;5.40;;
5456;SDS011;2751;49.802;9.944;2023-03-12T07:09:59;8.70;;;5.20;;
5456;SDS011;2751;49.802;9.944;2023-03-12T07:12:26;8.50;;;5.03;;
5456;SDS011;2751;49.802;9.944;2023-03-12T07:14:53;10.63;;;5.60;;
5456;SDS011;2751;49.802;9.944;2023-03-12T07:17:20;7.63;;;5.00;;
5456;SDS011;2751;49.802;9.944;2023-03-12T07:19:49;7.23;;;5.07;;
5456;SDS011;2751;49.802;9.944;2023-03-12T07:22:17;7.30;;;4.60;;
5456;SDS011;2751;49.802;9.944;2023-03-12T07:24:43;6.23;;;4.53;;
5456;SDS011;2751;49.802;9.944;2023-03-12T07:27:10;8.97;;;4.47;;
5456;SDS011;2751;49.802;9.944;2023-03-12T07:29:37;5.33;;;4.33;;
5456;SDS011;2751;49.802;9.944;2023-03-12T07:32:04;6.07;;;4.60;;
5456;SDS011;2751;49.802;9.944;2023-03-12T07:34:31;10.07;;;4.20;;
5456;SDS011;2751;49.802;9.944;2023-03-12T07:36:59;5.43;;;4.63;;
5456;SDS011;2751;49.802;9.944;2023-03-12T07:39:27;4.77;;;4.10;;
5456;SDS011;2751;49.802;9.944;2023-03-12T07:41:54;4.83;;;4.40;;
5456;SDS011;2751;49.802;9.944;2023-03-12T07:44:20;4.90;;;4.40;;
5456;SDS011;2751;49.802;9.944;2023-03-12T07:46:47;5.97;;;4.20;;
5456;SDS011;2751;49.802;9.944;2023-03-12T07:49:14;4.73;;;4.00;;
5456;SDS011;2751;49.802;9.944;2023-03-12T07:51:41;6.50;;;4.53;;
5456;SDS011;2751;49.802;9.944;2023-03-12T07:54:09;9.00;;;4.10;;
5456;SDS011;2751;49.802;9.944;2023-03-12T07:56:36;5.40;;;3.50;;
5456;SDS011;2751;49.802;9.944;2023-03-12T07:59:03;4.53;;;3.43;;
5456;SDS011;2751;49.802;9.944;2023-03-12T08:01:30;5.30;;;4.77;;
5456;SDS011;2751;49.802;9.944;2023-03-12T08:03:57;4.30;;;3.90;;
5456;SDS011;2751;49.802;9.944;2023-03-12T08:06:24;4.40;;;3.90;;
5456;SDS011;2751;49.802;9.944;2023-03-12T08:08:51;5.67;;;3.83;;
5456;SDS011;2751;49.802;9.944;2023-03-12T08:11:20;7.30;;;4.30;;
5456;SDS011;2751;49.802;9.944;2023-03-12T08:13:46;4.77;;;3.30;;
5456;SDS011;2751;49.802;9.944;2023-03-12T08:16:13;5.73;;;3.87;;
5456;SDS011;2751;49.802;9.944;2023-03-12T08:18:40;4.80;;;3.80;;
5456;SDS011;2751;49.802;9.944;2023-03-12T08:21:08;4.73;;;3.70;;
5456;SDS011;2751;49.802;9.944;2023-03-12T08:23:35;6.60;;;4.30;;
5456;SDS011;2751;49.802;9.944;2023-03-12T08:26:02;4.90;;;4.10;;
5456;SDS011;2751;49.802;9.944;2023-03-12T08:28:30;5.60;;;3.80;;
5456;SDS011;2751;49.802;9.944;2023-03-12T08:30:57;5.40;;;4.00;;
5456;SDS011;2751;49.802;9.944;2023-03-12T08:33:25;8.43;;;4.10;;
5456;SDS011;2751;49.802;9.944;2023-03-12T08:35:52;4.90;;;4.23;;
5456;SDS011;2751;49.802;9.944;2023-03-12T08:38:19;8.17;;;4.10;;
5456;SDS011;2751;49.802;9.944;2023-03-12T08:40:46;4.43;;;4.03;;
5456;SDS011;2751;49.802;9.944;2023-03-12T08:43:20;5.40;;;3.87;;
5456;SDS011;2751;49.802;9.944;2023-03-12T08:45:52;5.13;;;4.30;;
5456;SDS011;2751;49.802;9.944;2023-03-12T08:48:20;6.53;;;3.67;;
5456;SDS011;2751;49.802;9.944;2023-03-12T08:50:46;4.03;;;3.17;;
5456;SDS011;2751;49.802;9.944;2023-03-12T08:53:13;4.03;;;3.50;;
5456;SDS011;2751;49.802;9.944;2023-03-12T08:55:40;4.00;;;3.60;;
5456;SDS011;2751;49.802;9.944;2023-03-12T08:58:07;6.10;;;3.57;;
5456;SDS011;2751;49.802;9.944;2023-03-12T09:00:34;7.03;;;3.40;;
5456;SDS011;2751;49.802;9.944;2023-03-12T09:03:02;4.80;;;3.87;;
5456;SDS011;2751;49.802;9.944;2023-03-12T09:05:29;5.43;;;3.90;;
5456;SDS011;2751;49.802;9.944;2023-03-12T09:07:57;3.40;;;3.10;;
5456;SDS011;2751;49.802;9.944;2023-03-12T09:10:24;5.53;;;4.00;;
5456;SDS011;2751;49.802;9.944;2023-03-12T09:12:51;4.20;;;3.73;;
5456;SDS011;2751;49.802;9.944;2023-03-12T09:15:18;5.87;;;3.40;;
5456;SDS011;2751;49.802;9.944;2023-03-12T09:17:45;3.47;;;3.00;;
5456;SDS011;2751;49.802;9.944;2023-03-12T09:20:13;5.83;;;3.70;;
5456;SDS011;2751;49.802;9.944;2023-03-12T09:22:40;4.60;;;3.03;;
5456;SDS011;2751;49.802;9.944;2023-03-12T09:25:09;4.00;;;3.60;;
5456;SDS011;2751;49.802;9.944;2023-03-12T09:27:36;3.90;;;3.50;;
5456;SDS011;2751;49.802;9.944;2023-03-12T09:30:04;5.87;;;3.37;;
5456;SDS011;2751;49.802;9.944;2023-03-12T09:32:32;3.93;;;3.27;;
5456;SDS011;2751;49.802;9.944;2023-03-12T09:34:59;6.03;;;3.43;;
5456;SDS011;2751;49.802;9.944;2023-03-12T09:37:28;3.60;;;2.87;;
5456;SDS011;2751;49.802;9.944;2023-03-12T09:39:56;7.10;;;3.00;;
5456;SDS011;2751;49.802;9.944;2023-03-12T09:42:29;5.80;;;2.97;;
5456;SDS011;2751;49.802;9.944;2023-03-12T09:45:02;5.70;;;3.90;;
5456;SDS011;2751;49.802;9.944;2023-03-12T09:47:32;4.20;;;3.17;;
5456;SDS011;2751;49.802;9.944;2023-03-12T09:50:03;4.83;;;4.00;;
5456;SDS011;2751;49.802;9.944;2023-03-12T09:52:43;4.50;;;3.57;;
5456;SDS011;2751;49.802;9.944;2023-03-12T09:55:16;4.33;;;3.17;;
5456;SDS011;2751;49.802;9.944;2023-03-12T09:57:46;6.03;;;3.60;;
5456;SDS011;2751;49.802;9.944;2023-03-12T10:00:16;3.90;;;3.50;;
5456;SDS011;2751;49.802;9.944;2023-03-12T10:02:52;8.37;;;3.50;;
5456;SDS011;2751;49.802;9.944;2023-03-12T10:05:30;12.33;;;3.90;;
5456;SDS011;2751;49.802;9.944;2023-03-12T10:08:03;5.80;;;3.80;;
5456;SDS011;2751;49.802;9.944;2023-03-12T10:10:38;4.20;;;3.80;;
5456;SDS011;2751;49.802;9.944;2023-03-12T10:13:16;3.93;;;3.40;;
5456;SDS011;2751;49.802;9.944;2023-03-12T10:15:56;5.90;;;3.60;;
5456;SDS011;2751;49.802;9.944;2023-03-12T10:18:35;5.77;;;4.10;;
5456;SDS011;2751;49.802;9.944;2023-03-12T10:21:16;7.27;;;4.00;;
5456;SDS011;2751;49.802;9.944;2023-03-12T10:23:51;6.43;;;4.20;;
5456;SDS011;2751;49.802;9.944;2023-03-12T10:26:38;7.97;;;4.00;;
5456;SDS011;2751;49.802;9.944;2023-03-12T10:29:09;7.23;;;4.50;;
5456;SDS011;2751;49.802;9.944;2023-03-12T10:31:46;6.10;;;3.70;;
5456;SDS011;2751;49.802;9.944;2023-03-12T10:34:18;4.60;;;3.70;;
5456;SDS011;2751;49.802;9.944;2023-03-12T10:36:50;6.13;;;3.80;;
5456;SDS011;2751;49.802;9.944;2023-03-12T10:39:21;3.30;;;3.00;;
5456;SDS011;2751;49.802;9.944;2023-03-12T10:41:47;6.00;;;3.40;;
5456;SDS011;2751;49.802;9.944;2023-03-12T10:44:17;4.57;;;3.73;;
5456;SDS011;2751;49.802;9.944;2023-03-12T10:46:53;5.40;;;3.70;;
5456;SDS011;2751;49.802;9.944;2023-03-12T10:49:42;6.93;;;3.70;;
5456;SDS011;2751;49.802;9.944;2023-03-12T10:52:15;4.20;;;3.83;;
5456;SDS011;2751;49.802;9.944;2023-03-12T10:54:44;4.17;;;3.77;;
5456;SDS011;2751;49.802;9.944;2023-03-12T10:57:13;4.83;;;3.40;;
5456;SDS011;2751;49.802;9.944;2023-03-12T10:59:41;5.17;;;3.70;;
5456;SDS011;2751;49.802;9.944;2023-03-12T11:02:24;4.20;;;3.80;;
5456;SDS011;2751;49.802;9.944;2023-03-12T11:04:55;8.17;;;5.77;;
5456;SDS011;2751;49.802;9.944;2023-03-12T11:07:24;4.20;;;3.80;;
5456;SDS011;2751;49.802;9.944;2023-03-12T11:10:13;7.53;;;4.57;;
5456;SDS011;2751;49.802;9.944;2023-03-12T11:12:53;5.00;;;3.80;;
5456;SDS011;2751;49.802;9.944;2023-03-12T11:15:23;4.23;;;3.87;;
5456;SDS011;2751;49.802;9.944;2023-03-12T11:17:52;3.83;;;3.40;;
5456;SDS011;2751;49.802;9.944;2023-03-12T11:20:47;4.70;;;3.87;;
5456;SDS011;2751;49.802;9.944;2023-03-12T11:23:19;8.50;;;3.70;;
5456;SDS011;2751;49.802;9.944;2023-03-12T11:25:57;3.53;;;3.23;;
5456;SDS011;2751;49.802;9.944;2023-03-12T11:28:36;4.27;;;3.87;;
5456;SDS011;2751;49.802;9.944;2023-03-12T11:31:07;4.50;;;4.10;;
5456;SDS011;2751;49.802;9.944;2023-03-12T11:33:36;4.53;;;3.60;;
5456;SDS011;2751;49.802;9.944;2023-03-12T11:36:07;8.20;;;3.90;;
5456;SDS011;2751;49.802;9.944;2023-03-12T11:38:42;4.37;;;3.57;;
5456;SDS011;2751;49.802;9.944;2023-03-12T11:41:23;6.10;;;5.03;;
5456;SDS011;2751;49.802;9.944;2023-03-12T11:44:10;6.70;;;3.90;;
5456;SDS011;2751;49.802;9.944;2023-03-12T11:46:48;5.60;;;4.40;;
5456;SDS011;2751;49.802;9.944;2023-03-12T11:49:25;5.00;;;3.90;;
5456;SDS011;2751;49.802;9.944;2023-03-12T11:52:02;5.03;;;4.37;;
5456;SDS011;2751;49.802;9.944;2023-03-12T11:54:53;4.20;;;3.90;;
5456;SDS011;2751;49.802;9.944;2023-03-12T11:57:42;4.00;;;3.47;;
5456;SDS011;2751;49.802;9.944;2023-03-12T12:00:20;7.77;;;3.40;;
5456;SDS011;2751;49.802;9.944;2023-03-12T12:05:56;4.17;;;3.67;;
5456;SDS011;2751;49.802;9.944;2023-03-12T12:08:30;7.10;;;3.97;;
5456;SDS011;2751;49.802;9.944;2023-03-12T12:11:06;5.23;;;3.20;;
5456;SDS011;2751;49.802;9.944;2023-03-12T12:13:44;3.80;;;3.47;;
5456;SDS011;2751;49.802;9.944;2023-03-12T12:16:24;7.37;;;5.07;;
5456;SDS011;2751;49.802;9.944;2023-03-12T12:19:09;3.77;;;3.43;;
5456;SDS011;2751;49.802;9.944;2023-03-12T12:21:51;4.20;;;3.53;;
5456;SDS011;2751;49.802;9.944;2023-03-12T12:24:46;7.93;;;3.73;;
5456;SDS011;2751;49.802;9.944;2023-03-12T12:27:24;5.33;;;3.70;;
5456;SDS011;2751;49.802;9.944;2023-03-12T12:30:09;3.73;;;3.33;;
5456;SDS011;2751;49.802;9.944;2023-03-12T12:32:51;2.70;;;2.50;;
5456;SDS011;2751;49.802;9.944;2023-03-12T12:35:29;3.87;;;3.57;;
5456;SDS011;2751;49.802;9.944;2023-03-12T12:38:01;7.63;;;4.10;;
5456;SDS011;2751;49.802;9.944;2023-03-12T12:40:33;2.73;;;2.53;;
5456;SDS011;2751;49.802;9.944;2023-03-12T12:43:09;3.10;;;2.90;;
5456;SDS011;2751;49.802;9.944;2023-03-12T12:45:48;3.43;;;3.10;;
5456;SDS011;2751;49.802;9.944;2023-03-12T12:48:20;3.03;;;2.73;;
5456;SDS011;2751;49.802;9.944;2023-03-12T12:50:50;3.67;;;3.37;;
5456;SDS011;2751;49.802;9.944;2023-03-12T12:53:20;3.93;;;3.47;;
5456;SDS011;2751;49.802;9.944;2023-03-12T12:55:53;2.17;;;1.97;;
5456;SDS011;2751;49.802;9.944;2023-03-12T12:58:35;3.40;;;3.10;;
5456;SDS011;2751;49.802;9.944;2023-03-12T13:01:23;2.80;;;2.60;;
5456;SDS011;2751;49.802;9.944;2023-03-12T13:03:51;3.70;;;3.40;;
5456;SDS011;2751;49.802;9.944;2023-03-12T13:06:26;5.40;;;2.70;;
5456;SDS011;2751;49.802;9.944;2023-03-12T13:08:58;3.13;;;2.83;;
5456;SDS011;2751;49.802;9.944;2023-03-12T13:11:38;3.33;;;3.03;;
5456;SDS011;2751;49.802;9.944;2023-03-12T13:14:17;3.10;;;2.90;;
5456;SDS011;2751;49.802;9.944;2023-03-12T13:16:48;2.40;;;2.20;;
5456;SDS011;2751;49.802;9.944;2023-03-12T13:19:30;4.17;;;3.77;;
5456;SDS011;2751;49.802;9.944;2023-03-12T13:22:08;3.93;;;3.63;;
5456;SDS011;2751;49.802;9.944;2023-03-12T13:24:42;4.27;;;3.23;;
5456;SDS011;2751;49.802;9.944;2023-03-12T13:27:16;4.70;;;3.27;;
5456;SDS011;2751;49.802;9.944;2023-03-12T13:29:45;3.40;;;3.00;;
5456;SDS011;2751;49.802;9.944;2023-03-12T13:35:28;4.80;;;3.23;;
5456;SDS011;2751;49.802;9.944;2023-03-12T13:38:01;3.80;;;3.40;;
5456;SDS011;2751;49.802;9.944;2023-03-12T13:40:37;2.80;;;2.60;;
5456;SDS011;2751;49.802;9.944;2023-03-12T13:46:26;4.53;;;3.17;;
5456;SDS011;2751;49.802;9.944;2023-03-12T13:48:59;3.00;;;2.70;;
5456;SDS011;2751;49.802;9.944;2023-03-12T13:51:31;3.97;;;2.60;;
5456;SDS011;2751;49.802;9.944;2023-03-12T13:54:11;3.63;;;2.00;;
5456;SDS011;2751;49.802;9.944;2023-03-12T13:56:44;2.70;;;2.40;;
5456;SDS011;2751;49.802;9.944;2023-03-12T13:59:19;2.70;;;2.40;;
5456;SDS011;2751;49.802;9.944;2023-03-12T14:01:49;3.30;;;3.00;;
5456;SDS011;2751;49.802;9.944;2023-03-12T14:04:20;1.97;;;1.87;;
5456;SDS011;2751;49.802;9.944;2023-03-12T14:06:54;5.77;;;2.00;;
5456;SDS011;2751;49.802;9.944;2023-03-12T14:09:30;2.53;;;1.77;;
5456;SDS011;2751;49.802;9.944;2023-03-12T14:12:07;2.80;;;2.50;;
5456;SDS011;2751;49.802;9.944;2023-03-12T14:14:44;2.53;;;2.30;;
5456;SDS011;2751;49.802;9.944;2023-03-12T14:17:23;3.33;;;2.70;;
5456;SDS011;2751;49.802;9.944;2023-03-12T14:19:54;4.20;;;1.90;;
5456;SDS011;2751;49.802;9.944;2023-03-12T14:22:24;2.50;;;2.10;;
5456;SDS011;2751;49.802;9.944;2023-03-12T14:24:57;4.90;;;2.73;;
5456;SDS011;2751;49.802;9.944;2023-03-12T14:27:28;4.00;;;2.40;;
5456;SDS011;2751;49.802;9.944;2023-03-12T14:29:58;5.03;;;2.30;;
5456;SDS011;2751;49.802;9.944;2023-03-12T14:32:33;2.30;;;1.23;;
5456;SDS011;2751;49.802;9.944;2023-03-12T14:35:03;5.03;;;2.13;;
5456;SDS011;2751;49.802;9.944;2023-03-12T14:37:41;2.50;;;1.80;;
5456;SDS011;2751;49.802;9.944;2023-03-12T14:40:17;5.90;;;2.13;;
5456;SDS011;2751;49.802;9.944;2023-03-12T14:42:47;4.97;;;2.53;;
5456;SDS011;2751;49.802;9.944;2023-03-12T14:45:16;5.07;;;1.87;;
5456;SDS011;2751;49.802;9.944;2023-03-12T14:47:45;4.13;;;1.60;;
5456;SDS011;2751;49.802;9.944;2023-03-12T14:50:17;8.03;;;2.57;;
5456;SDS011;2751;49.802;9.944;2023-03-12T14:52:46;5.50;;;2.37;;
5456;SDS011;2751;49.802;9.944;2023-03-12T14:55:14;7.13;;;2.50;;
5456;SDS011;2751;49.802;9.944;2023-03-12T14:57:43;5.87;;;2.13;;
5456;SDS011;2751;49.802;9.944;2023-03-12T15:00:20;3.13;;;2.00;;
5456;SDS011;2751;49.802;9.944;2023-03-12T15:02:49;4.37;;;2.10;;
5456;SDS011;2751;49.802;9.944;2023-03-12T15:05:18;2.93;;;2.20;;
5456;SDS011;2751;49.802;9.944;2023-03-12T15:07:48;3.90;;;2.00;;
5456;SDS011;2751;49.802;9.944;2023-03-12T15:10:17;2.87;;;2.10;;
5456;SDS011;2751;49.802;9.944;2023-03-12T15:12:48;4.73;;;2.50;;
5456;SDS011;2751;49.802;9.944;2023-03-12T15:15:23;5.53;;;2.37;;
5456;SDS011;2751;49.802;9.944;2023-03-12T15:18:00;2.70;;;1.73;;
5456;SDS011;2751;49.802;9.944;2023-03-12T15:20:27;5.80;;;2.30;;
5456;SDS011;2751;49.802;9.944;2023-03-12T15:22:56;3.97;;;2.27;;
5456;SDS011;2751;49.802;9.944;2023-03-12T15:25:24;5.87;;;4.00;;
5456;SDS011;2751;49.802;9.944;2023-03-12T15:28:00;6.20;;;2.27;;
5456;SDS011;2751;49.802;9.944;2023-03-12T15:30:36;4.50;;;2.70;;
5456;SDS011;2751;49.802;9.944;2023-03-12T15:33:09;5.17;;;3.27;;
5456;SDS011;2751;49.802;9.944;2023-03-12T15:35:38;5.30;;;3.00;;
5456;SDS011;2751;49.802;9.944;2023-03-12T15:38:14;8.37;;;3.50;;
5456;SDS011;2751;49.802;9.944;2023-03-12T15:40:46;7.47;;;3.83;;